sensor_id;sensor_type;location;lat;lon;timestamp;temperature;humidity
11965;DHT22;6042;41.326;19.826;2024-03-23T00:54:57;11.20;99.90
11965;DHT22;6042;41.326;19.826;2024-03-23T00:57:24;11.10;99.90
11965;DHT22;6042;41.326;19.826;2024-03-23T00:59:52;11.00;99.90
11965;DHT22;6042;41.326;19.826;2024-03-23T01:02:18;11.10;99.90
11965;DHT22;6042;41.326;19.826;2024-03-23T01:04:46;11.10;99.90
11965;DHT22;6042;41.326;19.826;2024-03-23T01:07:12;11.00;99.90
11965;DHT22;6042;41.326;19.826;2024-03-23T01:09:40;11.00;99.90
11965;DHT22;6042;41.326;19.826;2024-03-23T01:12:08;11.00;99.90
11965;DHT22;6042;41.326;19.826;2024-03-23T01:14:35;11.00;99.90
11965;DHT22;6042;41.326;19.826;2024-03-23T01:17:02;11.00;99.90
11965;DHT22;6042;41.326;19.826;2024-03-23T01:19:30;11.00;99.90
11965;DHT22;6042;41.326;19.826;2024-03-23T01:21:57;11.00;99.90
11965;DHT22;6042;41.326;19.826;2024-03-23T01:24:25;11.00;99.90
11965;DHT22;6042;41.326;19.826;2024-03-23T01:26:51;11.10;99.90
11965;DHT22;6042;41.326;19.826;2024-03-23T01:29:20;11.10;99.90
11965;DHT22;6042;41.326;19.826;2024-03-23T01:31:47;11.10;99.90
11965;DHT22;6042;41.326;19.826;2024-03-23T01:34:14;11.10;99.90
11965;DHT22;6042;41.326;19.826;2024-03-23T01:36:41;11.10;99.90
11965;DHT22;6042;41.326;19.826;2024-03-23T01:39:09;11.10;99.90
11965;DHT22;6042;41.326;19.826;2024-03-23T01:41:35;11.10;99.90
11965;DHT22;6042;41.326;19.826;2024-03-23T01:44:05;11.10;99.90
11965;DHT22;6042;41.326;19.826;2024-03-23T01:46:34;11.00;99.90
11965;DHT22;6042;41.326;19.826;2024-03-23T01:49:01;11.00;99.90
11965;DHT22;6042;41.326;19.826;2024-03-23T01:51:29;11.10;99.90
11965;DHT22;6042;41.326;19.826;2024-03-23T01:53:56;11.00;99.90
11965;DHT22;6042;41.326;19.826;2024-03-23T01:56:23;11.10;99.90
11965;DHT22;6042;41.326;19.826;2024-03-23T01:58:51;11.10;99.90
11965;DHT22;6042;41.326;19.826;2024-03-23T02:01:17;11.20;99.90
11965;DHT22;6042;41.326;19.826;2024-03-23T02:03:48;11.10;99.90
11965;DHT22;6042;41.326;19.826;2024-03-23T02:06:15;11.20;99.90
11965;DHT22;6042;41.326;19.826;2024-03-23T02:08:44;11.20;99.90
11965;DHT22;6042;41.326;19.826;2024-03-23T02:11:11;11.10;99.90
11965;DHT22;6042;41.326;19.826;2024-03-23T02:13:38;11.20;99.90
11965;DHT22;6042;41.326;19.826;2024-03-23T02:16:05;11.20;99.90
11965;DHT22;6042;41.326;19.826;2024-03-23T02:18:35;11.20;99.90
11965;DHT22;6042;41.326;19.826;2024-03-23T02:21:03;11.20;99.90
11965;DHT22;6042;41.326;19.826;2024-03-23T02:23:32;11.20;99.90
11965;DHT22;6042;41.326;19.826;2024-03-23T02:25:58;11.10;99.90
11965;DHT22;6042;41.326;19.826;2024-03-23T02:28:26;11.10;99.80
11965;DHT22;6042;41.326;19.826;2024-03-23T02:30:52;11.00;99.90
11965;DHT22;6042;41.326;19.826;2024-03-23T02:33:20;11.00;99.90
11965;DHT22;6042;41.326;19.826;2024-03-23T02:35:47;10.90;99.90
11965;DHT22;6042;41.326;19.826;2024-03-23T02:38:15;10.80;99.90
11965;DHT22;6042;41.326;19.826;2024-03-23T02:40:43;10.60;99.90
11965;DHT22;6042;41.326;19.826;2024-03-23T02:43:11;10.70;99.90
11965;DHT22;6042;41.326;19.826;2024-03-23T02:45:38;10.80;99.90
11965;DHT22;6042;41.326;19.826;2024-03-23T02:48:06;10.80;99.90
11965;DHT22;6042;41.326;19.826;2024-03-23T02:50:32;10.80;99.90
11965;DHT22;6042;41.326;19.826;2024-03-23T02:53:00;10.80;99.90
11965;DHT22;6042;41.326;19.826;2024-03-23T02:55:26;10.80;99.90
11965;DHT22;6042;41.326;19.826;2024-03-23T02:57:55;10.70;98.20
11965;DHT22;6042;41.326;19.826;2024-03-23T03:00:22;10.80;97.90
11965;DHT22;6042;41.326;19.826;2024-03-23T03:02:49;10.70;97.60
11965;DHT22;6042;41.326;19.826;2024-03-23T03:05:16;10.70;97.80
11965;DHT22;6042;41.326;19.826;2024-03-23T03:07:43;10.80;98.10
11965;DHT22;6042;41.326;19.826;2024-03-23T03:10:10;10.70;97.80
11965;DHT22;6042;41.326;19.826;2024-03-23T03:12:38;10.70;98.10
11965;DHT22;6042;41.326;19.826;2024-03-23T03:15:06;10.70;98.10
11965;DHT22;6042;41.326;19.826;2024-03-23T03:17:34;10.70;99.20
11965;DHT22;6042;41.326;19.826;2024-03-23T03:20:01;10.70;99.40
11965;DHT22;6042;41.326;19.826;2024-03-23T03:22:31;10.70;99.60
11965;DHT22;6042;41.326;19.826;2024-03-23T03:24:57;10.70;99.10
11965;DHT22;6042;41.326;19.826;2024-03-23T03:27:26;10.70;98.60
11965;DHT22;6042;41.326;19.826;2024-03-23T03:29:52;10.70;98.40
11965;DHT22;6042;41.326;19.826;2024-03-23T03:32:21;10.60;98.10
11965;DHT22;6042;41.326;19.826;2024-03-23T03:34:48;10.60;97.80
11965;DHT22;6042;41.326;19.826;2024-03-23T03:37:16;10.50;97.80
11965;DHT22;6042;41.326;19.826;2024-03-23T03:39:43;10.50;98.00
11965;DHT22;6042;41.326;19.826;2024-03-23T03:42:10;10.60;98.70
11965;DHT22;6042;41.326;19.826;2024-03-23T03:44:37;10.60;99.20
11965;DHT22;6042;41.326;19.826;2024-03-23T03:47:06;10.60;99.30
11965;DHT22;6042;41.326;19.826;2024-03-23T03:49:34;10.60;98.80
11965;DHT22;6042;41.326;19.826;2024-03-23T03:52:01;10.60;98.70
11965;DHT22;6042;41.326;19.826;2024-03-23T03:54:30;10.70;99.00
11965;DHT22;6042;41.326;19.826;2024-03-23T03:56:57;10.70;98.80
11965;DHT22;6042;41.326;19.826;2024-03-23T03:59:24;10.70;99.20
11965;DHT22;6042;41.326;19.826;2024-03-23T04:01:52;10.50;99.40
11965;DHT22;6042;41.326;19.826;2024-03-23T04:04:19;10.40;99.90
11965;DHT22;6042;41.326;19.826;2024-03-23T04:06:48;10.50;99.90
11965;DHT22;6042;41.326;19.826;2024-03-23T04:09:15;10.50;99.90
11965;DHT22;6042;41.326;19.826;2024-03-23T04:11:42;10.40;99.90
11965;DHT22;6042;41.326;19.826;2024-03-23T04:14:09;10.20;99.60
11965;DHT22;6042;41.326;19.826;2024-03-23T04:16:36;10.30;99.40
11965;DHT22;6042;41.326;19.826;2024-03-23T04:19:03;10.30;99.30
11965;DHT22;6042;41.326;19.826;2024-03-23T04:21:30;10.40;98.80
11965;DHT22;6042;41.326;19.826;2024-03-23T04:23:58;10.50;99.10
11965;DHT22;6042;41.326;19.826;2024-03-23T04:26:26;10.60;99.00
11965;DHT22;6042;41.326;19.826;2024-03-23T04:28:53;10.60;98.60
11965;DHT22;6042;41.326;19.826;2024-03-23T04:31:24;10.60;98.70
11965;DHT22;6042;41.326;19.826;2024-03-23T04:33:50;10.50;98.70
11965;DHT22;6042;41.326;19.826;2024-03-23T04:36:18;10.50;98.70
11965;DHT22;6042;41.326;19.826;2024-03-23T04:38:46;10.50;98.80
11965;DHT22;6042;41.326;19.826;2024-03-23T04:41:18;10.50;98.20
11965;DHT22;6042;41.326;19.826;2024-03-23T04:43:46;10.50;98.90
11965;DHT22;6042;41.326;19.826;2024-03-23T04:46:13;10.60;98.90
11965;DHT22;6042;41.326;19.826;2024-03-23T04:48:41;10.60;99.30
11965;DHT22;6042;41.326;19.826;2024-03-23T04:51:10;10.50;99.40
11965;DHT22;6042;41.326;19.826;2024-03-23T04:53:39;10.40;99.90
11965;DHT22;6042;41.326;19.826;2024-03-23T04:56:06;10.40;99.90
11965;DHT22;6042;41.326;19.826;2024-03-23T04:58:35;10.50;99.90
11965;DHT22;6042;41.326;19.826;2024-03-23T05:01:02;10.40;99.90
11965;DHT22;6042;41.326;19.826;2024-03-23T05:03:29;10.40;99.90
11965;DHT22;6042;41.326;19.826;2024-03-23T05:05:56;10.40;99.90
11965;DHT22;6042;41.326;19.826;2024-03-23T05:08:23;10.30;99.90
11965;DHT22;6042;41.326;19.826;2024-03-23T05:10:49;10.40;99.90
11965;DHT22;6042;41.326;19.826;2024-03-23T05:13:17;10.40;99.90
11965;DHT22;6042;41.326;19.826;2024-03-23T05:15:52;10.40;99.90
11965;DHT22;6042;41.326;19.826;2024-03-23T05:18:19;10.40;99.60
11965;DHT22;6042;41.326;19.826;2024-03-23T05:20:47;10.50;99.00
11965;DHT22;6042;41.326;19.826;2024-03-23T05:23:14;10.50;98.70
11965;DHT22;6042;41.326;19.826;2024-03-23T05:25:41;10.60;99.10
11965;DHT22;6042;41.326;19.826;2024-03-23T05:28:08;10.60;98.70
11965;DHT22;6042;41.326;19.826;2024-03-23T05:30:36;10.70;98.10
11965;DHT22;6042;41.326;19.826;2024-03-23T05:33:04;10.80;98.40
11965;DHT22;6042;41.326;19.826;2024-03-23T05:35:32;10.80;98.00
11965;DHT22;6042;41.326;19.826;2024-03-23T05:37:59;10.80;97.60
11965;DHT22;6042;41.326;19.826;2024-03-23T05:40:27;10.80;97.30
11965;DHT22;6042;41.326;19.826;2024-03-23T05:42:54;10.90;97.00
11965;DHT22;6042;41.326;19.826;2024-03-23T05:45:22;11.00;97.10
11965;DHT22;6042;41.326;19.826;2024-03-23T05:47:48;11.00;97.00
11965;DHT22;6042;41.326;19.826;2024-03-23T05:50:18;11.10;97.40
11965;DHT22;6042;41.326;19.826;2024-03-23T05:52:44;11.10;96.90
11965;DHT22;6042;41.326;19.826;2024-03-23T05:55:12;11.20;96.60
11965;DHT22;6042;41.326;19.826;2024-03-23T05:57:38;11.30;96.30
11965;DHT22;6042;41.326;19.826;2024-03-23T06:00:07;11.40;96.50
11965;DHT22;6042;41.326;19.826;2024-03-23T06:02:42;11.40;96.60
11965;DHT22;6042;41.326;19.826;2024-03-23T06:05:11;11.50;96.50
11965;DHT22;6042;41.326;19.826;2024-03-23T06:07:39;11.60;96.20
11965;DHT22;6042;41.326;19.826;2024-03-23T06:10:07;11.70;96.20
11965;DHT22;6042;41.326;19.826;2024-03-23T06:12:34;11.90;95.90
11965;DHT22;6042;41.326;19.826;2024-03-23T06:15:02;11.90;95.80
11965;DHT22;6042;41.326;19.826;2024-03-23T06:17:28;12.00;95.70
11965;DHT22;6042;41.326;19.826;2024-03-23T06:19:56;12.00;95.60
11965;DHT22;6042;41.326;19.826;2024-03-23T06:22:23;12.20;95.50
11965;DHT22;6042;41.326;19.826;2024-03-23T06:24:52;12.20;95.10
11965;DHT22;6042;41.326;19.826;2024-03-23T06:27:18;12.40;95.00
11965;DHT22;6042;41.326;19.826;2024-03-23T06:29:46;12.50;94.80
11965;DHT22;6042;41.326;19.826;2024-03-23T06:32:13;12.50;94.70
11965;DHT22;6042;41.326;19.826;2024-03-23T06:34:41;12.60;94.40
11965;DHT22;6042;41.326;19.826;2024-03-23T06:37:08;12.60;94.30
11965;DHT22;6042;41.326;19.826;2024-03-23T06:39:36;12.80;94.10
11965;DHT22;6042;41.326;19.826;2024-03-23T06:42:04;12.80;94.20
11965;DHT22;6042;41.326;19.826;2024-03-23T06:44:32;12.90;93.80
11965;DHT22;6042;41.326;19.826;2024-03-23T06:46:58;13.00;94.10
11965;DHT22;6042;41.326;19.826;2024-03-23T06:49:26;13.00;93.80
11965;DHT22;6042;41.326;19.826;2024-03-23T06:51:52;13.20;93.30
11965;DHT22;6042;41.326;19.826;2024-03-23T06:54:20;13.30;93.40
11965;DHT22;6042;41.326;19.826;2024-03-23T06:56:47;13.30;93.10
11965;DHT22;6042;41.326;19.826;2024-03-23T06:59:18;13.60;92.90
11965;DHT22;6042;41.326;19.826;2024-03-23T07:01:44;13.70;93.70
11965;DHT22;6042;41.326;19.826;2024-03-23T07:04:12;13.80;93.50
11965;DHT22;6042;41.326;19.826;2024-03-23T07:06:42;13.90;94.00
11965;DHT22;6042;41.326;19.826;2024-03-23T07:09:12;14.00;93.50
11965;DHT22;6042;41.326;19.826;2024-03-23T07:11:39;14.20;92.80
11965;DHT22;6042;41.326;19.826;2024-03-23T07:14:06;14.30;93.00
11965;DHT22;6042;41.326;19.826;2024-03-23T07:16:40;14.40;92.80
11965;DHT22;6042;41.326;19.826;2024-03-23T07:19:07;14.50;92.70
11965;DHT22;6042;41.326;19.826;2024-03-23T07:21:35;14.60;93.00
11965;DHT22;6042;41.326;19.826;2024-03-23T07:24:01;14.80;93.70
11965;DHT22;6042;41.326;19.826;2024-03-23T07:26:29;14.90;93.00
11965;DHT22;6042;41.326;19.826;2024-03-23T07:28:55;15.10;94.10
11965;DHT22;6042;41.326;19.826;2024-03-23T07:31:24;15.10;94.00
11965;DHT22;6042;41.326;19.826;2024-03-23T07:33:52;15.20;93.80
11965;DHT22;6042;41.326;19.826;2024-03-23T07:36:20;15.30;93.60
11965;DHT22;6042;41.326;19.826;2024-03-23T07:38:46;15.50;93.60
11965;DHT22;6042;41.326;19.826;2024-03-23T07:41:16;15.60;94.40
11965;DHT22;6042;41.326;19.826;2024-03-23T07:43:44;15.60;95.00
11965;DHT22;6042;41.326;19.826;2024-03-23T07:46:11;15.70;95.00
11965;DHT22;6042;41.326;19.826;2024-03-23T07:48:40;15.90;95.50
11965;DHT22;6042;41.326;19.826;2024-03-23T07:51:10;16.00;95.60
11965;DHT22;6042;41.326;19.826;2024-03-23T07:53:38;16.10;96.00
11965;DHT22;6042;41.326;19.826;2024-03-23T07:56:07;16.10;96.60
11965;DHT22;6042;41.326;19.826;2024-03-23T07:58:34;16.10;96.90
11965;DHT22;6042;41.326;19.826;2024-03-23T08:01:06;16.10;97.50
11965;DHT22;6042;41.326;19.826;2024-03-23T08:03:34;16.10;97.50
11965;DHT22;6042;41.326;19.826;2024-03-23T08:06:11;16.20;97.30
11965;DHT22;6042;41.326;19.826;2024-03-23T08:08:39;16.40;96.80
11965;DHT22;6042;41.326;19.826;2024-03-23T08:11:11;16.60;97.10
11965;DHT22;6042;41.326;19.826;2024-03-23T08:13:39;16.50;97.60
11965;DHT22;6042;41.326;19.826;2024-03-23T08:16:07;16.50;97.30
11965;DHT22;6042;41.326;19.826;2024-03-23T08:18:35;16.60;97.00
11965;DHT22;6042;41.326;19.826;2024-03-23T08:21:03;16.80;96.60
11965;DHT22;6042;41.326;19.826;2024-03-23T08:23:33;16.90;96.40
11965;DHT22;6042;41.326;19.826;2024-03-23T08:26:00;17.00;96.40
11965;DHT22;6042;41.326;19.826;2024-03-23T08:28:29;17.10;96.70
11965;DHT22;6042;41.326;19.826;2024-03-23T08:30:56;16.90;96.90
11965;DHT22;6042;41.326;19.826;2024-03-23T08:33:24;17.00;96.80
11965;DHT22;6042;41.326;19.826;2024-03-23T08:35:54;17.10;96.60
11965;DHT22;6042;41.326;19.826;2024-03-23T08:38:23;17.30;96.50
11965;DHT22;6042;41.326;19.826;2024-03-23T08:40:58;17.30;96.60
11965;DHT22;6042;41.326;19.826;2024-03-23T08:43:26;17.20;97.10
11965;DHT22;6042;41.326;19.826;2024-03-23T08:45:53;17.40;97.20
11965;DHT22;6042;41.326;19.826;2024-03-23T08:48:22;17.40;97.20
11965;DHT22;6042;41.326;19.826;2024-03-23T08:50:59;17.30;96.70
11965;DHT22;6042;41.326;19.826;2024-03-23T08:53:28;17.30;96.70
11965;DHT22;6042;41.326;19.826;2024-03-23T08:55:54;17.40;96.80
11965;DHT22;6042;41.326;19.826;2024-03-23T08:58:24;17.50;96.50
11965;DHT22;6042;41.326;19.826;2024-03-23T09:00:51;17.60;96.20
11965;DHT22;6042;41.326;19.826;2024-03-23T09:03:19;17.90;96.50
11965;DHT22;6042;41.326;19.826;2024-03-23T09:05:46;17.90;96.40
11965;DHT22;6042;41.326;19.826;2024-03-23T09:08:13;18.00;96.20
11965;DHT22;6042;41.326;19.826;2024-03-23T09:10:40;18.00;96.10
11965;DHT22;6042;41.326;19.826;2024-03-23T09:13:08;18.10;96.20
11965;DHT22;6042;41.326;19.826;2024-03-23T09:15:37;18.20;95.70
11965;DHT22;6042;41.326;19.826;2024-03-23T09:18:05;18.20;95.70
11965;DHT22;6042;41.326;19.826;2024-03-23T09:20:33;18.10;96.00
11965;DHT22;6042;41.326;19.826;2024-03-23T09:23:00;17.90;96.00
11965;DHT22;6042;41.326;19.826;2024-03-23T09:25:27;17.90;95.60
11965;DHT22;6042;41.326;19.826;2024-03-23T09:27:55;18.00;95.50
11965;DHT22;6042;41.326;19.826;2024-03-23T09:30:22;17.90;95.60
11965;DHT22;6042;41.326;19.826;2024-03-23T09:32:51;17.80;95.80
11965;DHT22;6042;41.326;19.826;2024-03-23T09:35:17;17.70;96.10
11965;DHT22;6042;41.326;19.826;2024-03-23T09:37:45;17.40;96.60
11965;DHT22;6042;41.326;19.826;2024-03-23T09:40:12;17.30;97.00
11965;DHT22;6042;41.326;19.826;2024-03-23T09:42:40;17.40;97.00
11965;DHT22;6042;41.326;19.826;2024-03-23T09:45:17;17.70;96.80
11965;DHT22;6042;41.326;19.826;2024-03-23T09:47:47;17.90;96.60
11965;DHT22;6042;41.326;19.826;2024-03-23T09:50:16;18.20;95.80
11965;DHT22;6042;41.326;19.826;2024-03-23T09:52:46;18.20;95.30
11965;DHT22;6042;41.326;19.826;2024-03-23T09:55:12;18.40;95.70
11965;DHT22;6042;41.326;19.826;2024-03-23T09:57:40;18.50;95.40
11965;DHT22;6042;41.326;19.826;2024-03-23T10:00:07;18.60;94.80
11965;DHT22;6042;41.326;19.826;2024-03-23T10:02:37;18.50;93.90
11965;DHT22;6042;41.326;19.826;2024-03-23T10:05:05;18.50;94.40
11965;DHT22;6042;41.326;19.826;2024-03-23T10:07:50;18.60;94.70
11965;DHT22;6042;41.326;19.826;2024-03-23T10:10:17;18.70;94.10
11965;DHT22;6042;41.326;19.826;2024-03-23T10:12:46;18.60;93.80
11965;DHT22;6042;41.326;19.826;2024-03-23T10:15:21;18.10;94.70
11965;DHT22;6042;41.326;19.826;2024-03-23T10:17:51;17.90;95.60
11965;DHT22;6042;41.326;19.826;2024-03-23T10:20:19;17.80;95.80
11965;DHT22;6042;41.326;19.826;2024-03-23T10:22:50;17.90;95.70
11965;DHT22;6042;41.326;19.826;2024-03-23T10:25:18;18.10;95.70
11965;DHT22;6042;41.326;19.826;2024-03-23T10:27:58;18.20;95.50
11965;DHT22;6042;41.326;19.826;2024-03-23T10:30:26;18.40;95.60
11965;DHT22;6042;41.326;19.826;2024-03-23T10:33:07;18.40;95.60
11965;DHT22;6042;41.326;19.826;2024-03-23T10:35:34;18.20;95.60
11965;DHT22;6042;41.326;19.826;2024-03-23T10:38:04;18.20;95.90
11965;DHT22;6042;41.326;19.826;2024-03-23T10:40:34;18.30;95.50
11965;DHT22;6042;41.326;19.826;2024-03-23T10:43:03;18.50;95.60
11965;DHT22;6042;41.326;19.826;2024-03-23T10:45:30;18.60;95.20
11965;DHT22;6042;41.326;19.826;2024-03-23T10:47:58;18.70;95.40
11965;DHT22;6042;41.326;19.826;2024-03-23T10:50:26;18.70;95.80
11965;DHT22;6042;41.326;19.826;2024-03-23T10:52:53;18.80;95.30
11965;DHT22;6042;41.326;19.826;2024-03-23T10:55:24;18.60;96.00
11965;DHT22;6042;41.326;19.826;2024-03-23T10:57:53;18.70;95.90
11965;DHT22;6042;41.326;19.826;2024-03-23T11:00:20;19.00;95.80
11965;DHT22;6042;41.326;19.826;2024-03-23T11:02:49;19.10;95.60
11965;DHT22;6042;41.326;19.826;2024-03-23T11:05:29;19.00;95.30
11965;DHT22;6042;41.326;19.826;2024-03-23T11:07:57;19.00;95.40
11965;DHT22;6042;41.326;19.826;2024-03-23T11:10:29;18.90;95.70
11965;DHT22;6042;41.326;19.826;2024-03-23T11:13:21;18.90;96.10
11965;DHT22;6042;41.326;19.826;2024-03-23T11:15:48;19.00;95.70
11965;DHT22;6042;41.326;19.826;2024-03-23T11:18:20;19.10;94.90
11965;DHT22;6042;41.326;19.826;2024-03-23T11:20:47;19.10;94.50
11965;DHT22;6042;41.326;19.826;2024-03-23T11:23:27;19.40;93.70
11965;DHT22;6042;41.326;19.826;2024-03-23T11:25:55;19.80;93.00
11965;DHT22;6042;41.326;19.826;2024-03-23T11:28:23;20.00;92.70
11965;DHT22;6042;41.326;19.826;2024-03-23T11:30:49;19.80;93.50
11965;DHT22;6042;41.326;19.826;2024-03-23T11:33:17;19.80;93.90
11965;DHT22;6042;41.326;19.826;2024-03-23T11:35:44;20.10;93.70
11965;DHT22;6042;41.326;19.826;2024-03-23T11:38:12;20.20;93.90
11965;DHT22;6042;41.326;19.826;2024-03-23T11:40:41;20.00;94.50
11965;DHT22;6042;41.326;19.826;2024-03-23T11:43:11;19.70;95.10
11965;DHT22;6042;41.326;19.826;2024-03-23T11:45:39;19.70;96.20
11965;DHT22;6042;41.326;19.826;2024-03-23T11:48:09;19.50;96.30
11965;DHT22;6042;41.326;19.826;2024-03-23T11:50:38;19.40;96.40
11965;DHT22;6042;41.326;19.826;2024-03-23T11:53:15;19.60;96.20
11965;DHT22;6042;41.326;19.826;2024-03-23T11:55:46;19.80;96.60
11965;DHT22;6042;41.326;19.826;2024-03-23T11:58:17;19.90;95.90
11965;DHT22;6042;41.326;19.826;2024-03-23T12:00:50;19.90;96.10
11965;DHT22;6042;41.326;19.826;2024-03-23T12:03:19;19.90;96.30
11965;DHT22;6042;41.326;19.826;2024-03-23T12:05:49;20.20;95.90
11965;DHT22;6042;41.326;19.826;2024-03-23T12:08:21;20.30;95.90
11965;DHT22;6042;41.326;19.826;2024-03-23T12:10:50;20.40;96.10
11965;DHT22;6042;41.326;19.826;2024-03-23T12:13:21;19.90;96.40
11965;DHT22;6042;41.326;19.826;2024-03-23T12:15:49;19.90;96.50
11965;DHT22;6042;41.326;19.826;2024-03-23T12:18:18;19.90;95.80
11965;DHT22;6042;41.326;19.826;2024-03-23T12:20:50;19.70;94.90
11965;DHT22;6042;41.326;19.826;2024-03-23T12:23:17;19.30;95.40
11965;DHT22;6042;41.326;19.826;2024-03-23T12:25:44;19.20;95.60
11965;DHT22;6042;41.326;19.826;2024-03-23T12:28:11;19.10;96.40
11965;DHT22;6042;41.326;19.826;2024-03-23T12:30:40;18.90;96.90
11965;DHT22;6042;41.326;19.826;2024-03-23T12:33:08;18.70;96.90
11965;DHT22;6042;41.326;19.826;2024-03-23T12:35:34;18.60;96.60
11965;DHT22;6042;41.326;19.826;2024-03-23T12:38:02;18.70;97.40
11965;DHT22;6042;41.326;19.826;2024-03-23T12:40:28;18.80;96.90
11965;DHT22;6042;41.326;19.826;2024-03-23T12:42:56;19.10;96.60
11965;DHT22;6042;41.326;19.826;2024-03-23T12:45:25;19.40;96.80
11965;DHT22;6042;41.326;19.826;2024-03-23T12:48:09;19.50;97.30
11965;DHT22;6042;41.326;19.826;2024-03-23T12:50:42;19.80;97.50
11965;DHT22;6042;41.326;19.826;2024-03-23T12:53:10;19.80;97.30
11965;DHT22;6042;41.326;19.826;2024-03-23T12:55:36;19.80;97.30
11965;DHT22;6042;41.326;19.826;2024-03-23T12:58:04;19.80;97.50
11965;DHT22;6042;41.326;19.826;2024-03-23T13:00:31;19.50;97.50
11965;DHT22;6042;41.326;19.826;2024-03-23T13:02:58;19.20;98.20
11965;DHT22;6042;41.326;19.826;2024-03-23T13:05:26;19.30;98.80
11965;DHT22;6042;41.326;19.826;2024-03-23T13:07:53;19.10;99.30
11965;DHT22;6042;41.326;19.826;2024-03-23T13:10:20;18.80;99.30
11965;DHT22;6042;41.326;19.826;2024-03-23T13:12:48;19.10;99.30
11965;DHT22;6042;41.326;19.826;2024-03-23T13:15:14;18.80;99.40
11965;DHT22;6042;41.326;19.826;2024-03-23T13:17:43;18.70;99.60
11965;DHT22;6042;41.326;19.826;2024-03-23T13:20:11;18.70;99.60
11965;DHT22;6042;41.326;19.826;2024-03-23T13:22:42;18.60;99.60
11965;DHT22;6042;41.326;19.826;2024-03-23T13:25:08;18.80;99.00
11965;DHT22;6042;41.326;19.826;2024-03-23T13:27:36;19.00;98.10
11965;DHT22;6042;41.326;19.826;2024-03-23T13:30:03;19.40;98.20
11965;DHT22;6042;41.326;19.826;2024-03-23T13:32:31;19.90;97.80
11965;DHT22;6042;41.326;19.826;2024-03-23T13:34:58;20.00;97.40
11965;DHT22;6042;41.326;19.826;2024-03-23T13:37:31;19.90;97.70
11965;DHT22;6042;41.326;19.826;2024-03-23T13:40:00;19.80;97.50
11965;DHT22;6042;41.326;19.826;2024-03-23T13:42:47;19.80;97.30
11965;DHT22;6042;41.326;19.826;2024-03-23T13:45:15;19.80;97.60
11965;DHT22;6042;41.326;19.826;2024-03-23T13:47:41;19.20;98.60
11965;DHT22;6042;41.326;19.826;2024-03-23T13:50:09;19.40;98.60
11965;DHT22;6042;41.326;19.826;2024-03-23T13:52:36;20.60;97.50
11965;DHT22;6042;41.326;19.826;2024-03-23T13:55:06;21.80;96.30
11965;DHT22;6042;41.326;19.826;2024-03-23T13:57:34;22.80;95.30
11965;DHT22;6042;41.326;19.826;2024-03-23T14:00:03;24.20;93.50
11965;DHT22;6042;41.326;19.826;2024-03-23T14:02:38;25.40;91.30
11965;DHT22;6042;41.326;19.826;2024-03-23T14:05:06;25.80;90.90
11965;DHT22;6042;41.326;19.826;2024-03-23T14:07:34;26.10;90.00
11965;DHT22;6042;41.326;19.826;2024-03-23T14:10:03;26.50;88.20
11965;DHT22;6042;41.326;19.826;2024-03-23T14:12:32;25.80;88.90
11965;DHT22;6042;41.326;19.826;2024-03-23T14:15:00;25.20;89.90
11965;DHT22;6042;41.326;19.826;2024-03-23T14:17:26;25.80;87.80
11965;DHT22;6042;41.326;19.826;2024-03-23T14:19:55;27.10;85.10
11965;DHT22;6042;41.326;19.826;2024-03-23T14:22:24;28.10;82.10
11965;DHT22;6042;41.326;19.826;2024-03-23T14:24:58;28.20;80.10
11965;DHT22;6042;41.326;19.826;2024-03-23T14:27:24;28.40;78.30
11965;DHT22;6042;41.326;19.826;2024-03-23T14:30:08;28.50;77.40
11965;DHT22;6042;41.326;19.826;2024-03-23T14:32:36;27.80;77.90
11965;DHT22;6042;41.326;19.826;2024-03-23T14:35:04;25.30;82.90
11965;DHT22;6042;41.326;19.826;2024-03-23T14:37:31;23.40;88.60
11965;DHT22;6042;41.326;19.826;2024-03-23T14:39:58;21.80;91.70
11965;DHT22;6042;41.326;19.826;2024-03-23T14:42:25;20.90;93.50
11965;DHT22;6042;41.326;19.826;2024-03-23T14:44:54;20.40;94.10
11965;DHT22;6042;41.326;19.826;2024-03-23T14:47:22;19.80;95.10
11965;DHT22;6042;41.326;19.826;2024-03-23T14:49:49;19.70;95.80
11965;DHT22;6042;41.326;19.826;2024-03-23T14:52:18;19.70;95.90
11965;DHT22;6042;41.326;19.826;2024-03-23T14:54:46;19.70;96.00
11965;DHT22;6042;41.326;19.826;2024-03-23T14:57:13;19.50;96.30
11965;DHT22;6042;41.326;19.826;2024-03-23T14:59:50;19.20;97.00
11965;DHT22;6042;41.326;19.826;2024-03-23T15:02:21;19.10;97.10
11965;DHT22;6042;41.326;19.826;2024-03-23T15:04:50;19.20;97.00
11965;DHT22;6042;41.326;19.826;2024-03-23T15:07:19;19.30;96.90
11965;DHT22;6042;41.326;19.826;2024-03-23T15:09:49;19.20;97.40
11965;DHT22;6042;41.326;19.826;2024-03-23T15:12:18;19.30;97.10
11965;DHT22;6042;41.326;19.826;2024-03-23T15:14:49;19.40;97.10
11965;DHT22;6042;41.326;19.826;2024-03-23T15:17:15;19.30;97.20
11965;DHT22;6042;41.326;19.826;2024-03-23T15:19:46;19.10;97.20
11965;DHT22;6042;41.326;19.826;2024-03-23T15:22:12;18.80;97.60
11965;DHT22;6042;41.326;19.826;2024-03-23T15:24:41;18.60;97.90
11965;DHT22;6042;41.326;19.826;2024-03-23T15:27:07;18.80;98.10
11965;DHT22;6042;41.326;19.826;2024-03-23T15:29:39;18.90;98.10
11965;DHT22;6042;41.326;19.826;2024-03-23T15:32:07;18.90;97.90
11965;DHT22;6042;41.326;19.826;2024-03-23T15:34:36;19.10;97.80
11965;DHT22;6042;41.326;19.826;2024-03-23T15:37:04;19.20;98.00
11965;DHT22;6042;41.326;19.826;2024-03-23T15:39:32;19.10;98.00
11965;DHT22;6042;41.326;19.826;2024-03-23T15:41:58;19.00;97.80
11965;DHT22;6042;41.326;19.826;2024-03-23T15:44:26;18.70;98.50
11965;DHT22;6042;41.326;19.826;2024-03-23T15:46:53;18.40;98.50
11965;DHT22;6042;41.326;19.826;2024-03-23T15:49:24;18.40;99.00
11965;DHT22;6042;41.326;19.826;2024-03-23T15:51:51;18.40;99.60
11965;DHT22;6042;41.326;19.826;2024-03-23T15:54:22;18.10;99.90
11965;DHT22;6042;41.326;19.826;2024-03-23T15:56:51;17.90;99.90
11965;DHT22;6042;41.326;19.826;2024-03-23T15:59:18;17.80;99.90
11965;DHT22;6042;41.326;19.826;2024-03-23T16:01:46;18.00;99.90
11965;DHT22;6042;41.326;19.826;2024-03-23T16:04:13;18.00;99.90
11965;DHT22;6042;41.326;19.826;2024-03-23T16:06:40;18.00;99.90
11965;DHT22;6042;41.326;19.826;2024-03-23T16:09:10;17.70;99.90
11965;DHT22;6042;41.326;19.826;2024-03-23T16:11:41;17.50;99.90
11965;DHT22;6042;41.326;19.826;2024-03-23T16:14:10;17.30;99.90
11965;DHT22;6042;41.326;19.826;2024-03-23T16:16:40;17.30;99.90
11965;DHT22;6042;41.326;19.826;2024-03-23T16:19:09;17.30;99.90
11965;DHT22;6042;41.326;19.826;2024-03-23T16:21:38;17.40;99.90
11965;DHT22;6042;41.326;19.826;2024-03-23T16:24:06;17.50;99.90
11965;DHT22;6042;41.326;19.826;2024-03-23T16:26:35;17.40;99.90
11965;DHT22;6042;41.326;19.826;2024-03-23T16:29:03;17.30;99.90
11965;DHT22;6042;41.326;19.826;2024-03-23T16:31:30;17.20;99.90